sensor_id;sensor_type;location;lat;lon;timestamp;pressure;altitude;pressure_sealevel;temperature;humidity
22047;BME280;11187;49.412;20.956;2022-09-24T00:00:18;95271.13;;;4.48;100.00
22047;BME280;11187;49.412;20.956;2022-09-24T00:03:12;95266.06;;;4.50;100.00
22047;BME280;11187;49.412;20.956;2022-09-24T00:05:46;95266.88;;;4.49;100.00
22047;BME280;11187;49.412;20.956;2022-09-24T00:08:34;95265.19;;;4.49;100.00
22047;BME280;11187;49.412;20.956;2022-09-24T00:11:08;95264.34;;;4.49;100.00
22047;BME280;11187;49.412;20.956;2022-09-24T00:13:55;95255.97;;;4.54;100.00
22047;BME280;11187;49.412;20.956;2022-09-24T00:16:30;95259.31;;;4.53;100.00
22047;BME280;11187;49.412;20.956;2022-09-24T00:19:16;95244.94;;;4.54;100.00
22047;BME280;11187;49.412;20.956;2022-09-24T00:21:50;95246.63;;;4.53;100.00
22047;BME280;11187;49.412;20.956;2022-09-24T00:24:37;95243.25;;;4.53;100.00
22047;BME280;11187;49.412;20.956;2022-09-24T00:27:29;95244.13;;;4.58;100.00
22047;BME280;11187;49.412;20.956;2022-09-24T00:30:22;95239.06;;;4.58;100.00
22047;BME280;11187;49.412;20.956;2022-09-24T00:33:16;95239.91;;;4.55;100.00
22047;BME280;11187;49.412;20.956;2022-09-24T00:36:10;95239.06;;;4.55;100.00
22047;BME280;11187;49.412;20.956;2022-09-24T00:38:48;95230.56;;;4.50;100.00
22047;BME280;11187;49.412;20.956;2022-09-24T00:41:36;95219.56;;;4.49;100.00
22047;BME280;11187;49.412;20.956;2022-09-24T01:01:04;95218.81;;;4.63;100.00
22047;BME280;11187;49.412;20.956;2022-09-24T01:03:46;95208.69;;;4.66;100.00
22047;BME280;11187;49.412;20.956;2022-09-24T01:06:27;95211.22;;;4.67;100.00
22047;BME280;11187;49.412;20.956;2022-09-24T01:09:23;95207.84;;;4.67;100.00
22047;BME280;11187;49.412;20.956;2022-09-24T01:12:13;95207.00;;;4.65;100.00
22047;BME280;11187;49.412;20.956;2022-09-24T01:18:06;95211.25;;;4.69;100.00
22047;BME280;11187;49.412;20.956;2022-09-24T01:21:38;95207.03;;;4.72;100.00
22047;BME280;11187;49.412;20.956;2022-09-24T01:24:42;95207.88;;;4.74;100.00
22047;BME280;11187;49.412;20.956;2022-09-24T01:30:53;95206.16;;;4.64;100.00
22047;BME280;11187;49.412;20.956;2022-09-24T01:33:45;95206.09;;;4.55;100.00
22047;BME280;11187;49.412;20.956;2022-09-24T01:36:23;95204.34;;;4.46;100.00
22047;BME280;11187;49.412;20.956;2022-09-24T01:39:11;95209.38;;;4.42;100.00
22047;BME280;11187;49.412;20.956;2022-09-24T01:41:47;95209.38;;;4.38;100.00
22047;BME280;11187;49.412;20.956;2022-09-24T01:44:36;95202.56;;;4.36;100.00
22047;BME280;11187;49.412;20.956;2022-09-24T01:47:19;95202.56;;;4.34;100.00
22047;BME280;11187;49.412;20.956;2022-09-24T01:50:17;95202.59;;;4.37;100.00
22047;BME280;11187;49.412;20.956;2022-09-24T01:53:18;95208.53;;;4.39;100.00
22047;BME280;11187;49.412;20.956;2022-09-24T01:55:58;95198.41;;;4.44;100.00
22047;BME280;11187;49.412;20.956;2022-09-24T02:01:46;95198.47;;;4.53;100.00
22047;BME280;11187;49.412;20.956;2022-09-24T02:04:46;95195.09;;;4.54;100.00
22047;BME280;11187;49.412;20.956;2022-09-24T02:07:26;95188.31;;;4.52;100.00
22047;BME280;11187;49.412;20.956;2022-09-24T02:10:16;95186.59;;;4.49;100.00
22047;BME280;11187;49.412;20.956;2022-09-24T02:12:56;95187.47;;;4.50;100.00
22047;BME280;11187;49.412;20.956;2022-09-24T02:15:47;95185.75;;;4.49;100.00
22047;BME280;11187;49.412;20.956;2022-09-24T02:18:28;95187.47;;;4.50;100.00
22047;BME280;11187;49.412;20.956;2022-09-24T02:21:26;95185.78;;;4.50;100.00
22047;BME280;11187;49.412;20.956;2022-09-24T02:24:27;95185.75;;;4.49;100.00
22047;BME280;11187;49.412;20.956;2022-09-24T02:27:24;95193.41;;;4.53;100.00
22047;BME280;11187;49.412;20.956;2022-09-24T02:30:18;95192.56;;;4.56;100.00
22047;BME280;11187;49.412;20.956;2022-09-24T02:33:13;95191.72;;;4.55;100.00
22047;BME280;11187;49.412;20.956;2022-09-24T02:36:27;95191.75;;;4.57;100.00
22047;BME280;11187;49.412;20.956;2022-09-24T02:39:00;95187.50;;;4.54;100.00
22047;BME280;11187;49.412;20.956;2022-09-24T02:41:48;95186.66;;;4.57;100.00
22047;BME280;11187;49.412;20.956;2022-09-24T02:44:22;95186.66;;;4.58;100.00
22047;BME280;11187;49.412;20.956;2022-09-24T02:51:55;95182.44;;;4.54;100.00
22047;BME280;11187;49.412;20.956;2022-09-24T02:54:49;95182.44;;;4.54;100.00
22047;BME280;11187;49.412;20.956;2022-09-24T02:57:23;95184.09;;;4.54;100.00
22047;BME280;11187;49.412;20.956;2022-09-24T03:00:10;95188.34;;;4.55;100.00
22047;BME280;11187;49.412;20.956;2022-09-24T03:02:44;95185.78;;;4.52;100.00
22047;BME280;11187;49.412;20.956;2022-09-24T03:05:37;95185.78;;;4.50;100.00
22047;BME280;11187;49.412;20.956;2022-09-24T03:08:11;95187.47;;;4.51;100.00
22047;BME280;11187;49.412;20.956;2022-09-24T03:11:04;95181.53;;;4.48;100.00
22047;BME280;11187;49.412;20.956;2022-09-24T03:13:44;95184.84;;;4.37;100.00
22047;BME280;11187;49.412;20.956;2022-09-24T03:16:30;95178.88;;;4.31;100.00
22047;BME280;11187;49.412;20.956;2022-09-24T03:19:05;95169.59;;;4.28;100.00
22047;BME280;11187;49.412;20.956;2022-09-24T03:21:51;95173.81;;;4.25;100.00
22047;BME280;11187;49.412;20.956;2022-09-24T03:24:25;95170.41;;;4.24;100.00
22047;BME280;11187;49.412;20.956;2022-09-24T03:27:11;95174.59;;;4.19;100.00
22047;BME280;11187;49.412;20.956;2022-09-24T03:29:45;95165.31;;;4.18;100.00
22047;BME280;11187;49.412;20.956;2022-09-24T03:32:57;95172.88;;;4.15;100.00
22047;BME280;11187;49.412;20.956;2022-09-24T03:36:00;95166.91;;;4.08;100.00
22047;BME280;11187;49.412;20.956;2022-09-24T03:38:35;95161.00;;;4.08;100.00
22047;BME280;11187;49.412;20.956;2022-09-24T03:41:29;95160.19;;;4.12;100.00
22047;BME280;11187;49.412;20.956;2022-09-24T03:44:03;95158.47;;;4.08;100.00
22047;BME280;11187;49.412;20.956;2022-09-24T03:46:56;95159.31;;;4.10;100.00
22047;BME280;11187;49.412;20.956;2022-09-24T03:49:50;95161.84;;;4.07;100.00
22047;BME280;11187;49.412;20.956;2022-09-24T03:52:25;95161.75;;;3.99;100.00
22047;BME280;11187;49.412;20.956;2022-09-24T03:55:12;95161.75;;;3.96;100.00
22047;BME280;11187;49.412;20.956;2022-09-24T03:57:46;95160.94;;;4.00;100.00
22047;BME280;11187;49.412;20.956;2022-09-24T04:00:32;95166.88;;;4.05;100.00
22047;BME280;11187;49.412;20.956;2022-09-24T04:03:07;95160.97;;;4.06;100.00
22047;BME280;11187;49.412;20.956;2022-09-24T04:05:53;95165.22;;;4.07;100.00
22047;BME280;11187;49.412;20.956;2022-09-24T04:08:27;95162.66;;;4.06;100.00
22047;BME280;11187;49.412;20.956;2022-09-24T04:11:21;95167.72;;;4.03;100.00
22047;BME280;11187;49.412;20.956;2022-09-24T04:13:55;95173.63;;;4.03;100.00
22047;BME280;11187;49.412;20.956;2022-09-24T04:16:48;95175.31;;;4.03;100.00
22047;BME280;11187;49.412;20.956;2022-09-24T04:19:44;95175.28;;;4.01;100.00
22047;BME280;11187;49.412;20.956;2022-09-24T04:22:18;95174.47;;;4.02;100.00
22047;BME280;11187;49.412;20.956;2022-09-24T04:25:05;95168.53;;;4.02;100.00
22047;BME280;11187;49.412;20.956;2022-09-24T04:27:41;95167.63;;;3.92;100.00
22047;BME280;11187;49.412;20.956;2022-09-24T04:30:29;95167.59;;;3.89;100.00
22047;BME280;11187;49.412;20.956;2022-09-24T04:33:24;95171.81;;;3.87;100.00
22047;BME280;11187;49.412;20.956;2022-09-24T04:35:57;95180.25;;;3.84;100.00
22047;BME280;11187;49.412;20.956;2022-09-24T04:38:44;95174.31;;;3.84;100.00
22047;BME280;11187;49.412;20.956;2022-09-24T04:41:18;95179.41;;;3.88;100.00
22047;BME280;11187;49.412;20.956;2022-09-24T04:44:11;95167.66;;;3.96;100.00
22047;BME280;11187;49.412;20.956;2022-09-24T04:47:05;95168.53;;;4.02;100.00
22047;BME280;11187;49.412;20.956;2022-09-24T04:49:59;95163.50;;;4.06;100.00
22047;BME280;11187;49.412;20.956;2022-09-24T04:52:54;95170.31;;;4.09;100.00
22047;BME280;11187;49.412;20.956;2022-09-24T04:55:28;95174.44;;;4.01;100.00
22047;BME280;11187;49.412;20.956;2022-09-24T04:58:16;95162.59;;;4.00;100.00
22047;BME280;11187;49.412;20.956;2022-09-24T05:00:49;95160.06;;;3.93;100.00
22047;BME280;11187;49.412;20.956;2022-09-24T05:03:35;95158.31;;;3.88;100.00
22047;BME280;11187;49.412;20.956;2022-09-24T05:06:09;95162.50;;;3.86;100.00
22047;BME280;11187;49.412;20.956;2022-09-24T05:08:55;95159.97;;;3.84;100.00
22047;BME280;11187;49.412;20.956;2022-09-24T05:11:29;95157.47;;;3.89;100.00
22047;BME280;11187;49.412;20.956;2022-09-24T05:14:15;95154.16;;;3.93;100.00
22047;BME280;11187;49.412;20.956;2022-09-24T05:16:49;95153.31;;;3.97;100.00
22047;BME280;11187;49.412;20.956;2022-09-24T05:19:42;95151.63;;;3.99;100.00
22047;BME280;11187;49.412;20.956;2022-09-24T05:22:54;95150.75;;;3.94;100.00
22047;BME280;11187;49.412;20.956;2022-09-24T05:25:28;95149.91;;;3.92;100.00
22047;BME280;11187;49.412;20.956;2022-09-24T05:28:34;95154.97;;;3.92;100.00
22047;BME280;11187;49.412;20.956;2022-09-24T05:31:15;95147.41;;;3.96;100.00
22047;BME280;11187;49.412;20.956;2022-09-24T05:34:09;95156.75;;;4.02;100.00
22047;BME280;11187;49.412;20.956;2022-09-24T05:37:03;95151.72;;;4.07;100.00
22047;BME280;11187;49.412;20.956;2022-09-24T05:39:57;95146.69;;;4.11;100.00
22047;BME280;11187;49.412;20.956;2022-09-24T05:42:51;95155.13;;;4.15;100.00
22047;BME280;11187;49.412;20.956;2022-09-24T05:45:52;95148.38;;;4.17;100.00
22047;BME280;11187;49.412;20.956;2022-09-24T05:48:45;95154.28;;;4.14;100.00
22047;BME280;11187;49.412;20.956;2022-09-24T05:51:19;95155.13;;;4.13;100.00
22047;BME280;11187;49.412;20.956;2022-09-24T05:54:12;95150.03;;;4.10;100.00
22047;BME280;11187;49.412;20.956;2022-09-24T05:56:46;95156.81;;;4.11;100.00
22047;BME280;11187;49.412;20.956;2022-09-24T05:59:32;95157.69;;;4.16;100.00
22047;BME280;11187;49.412;20.956;2022-09-24T06:02:07;95147.53;;;4.16;100.00
22047;BME280;11187;49.412;20.956;2022-09-24T06:04:54;95147.53;;;4.15;100.00
22047;BME280;11187;49.412;20.956;2022-09-24T06:07:28;95152.63;;;4.18;100.00
22047;BME280;11187;49.412;20.956;2022-09-24T06:10:14;95151.81;;;4.21;100.00
22047;BME280;11187;49.412;20.956;2022-09-24T06:12:48;95140.00;;;4.26;100.00
22047;BME280;11187;49.412;20.956;2022-09-24T06:15:37;95144.25;;;4.31;100.00
22047;BME280;11187;49.412;20.956;2022-09-24T06:18:11;95145.13;;;4.32;100.00
22047;BME280;11187;49.412;20.956;2022-09-24T06:21:06;95145.13;;;4.38;100.00
22047;BME280;11187;49.412;20.956;2022-09-24T06:23:42;95149.41;;;4.44;100.00
22047;BME280;11187;49.412;20.956;2022-09-24T06:26:36;95153.66;;;4.48;100.00
22047;BME280;11187;49.412;20.956;2022-09-24T06:29:10;95149.41;;;4.47;100.00
22047;BME280;11187;49.412;20.956;2022-09-24T06:32:03;95155.31;;;4.47;100.00
22047;BME280;11187;49.412;20.956;2022-09-24T06:34:37;95156.19;;;4.49;100.00
22047;BME280;11187;49.412;20.956;2022-09-24T06:37:23;95154.53;;;4.53;100.00
22047;BME280;11187;49.412;20.956;2022-09-24T06:39:57;95157.06;;;4.56;100.00
22047;BME280;11187;49.412;20.956;2022-09-24T06:42:43;95166.41;;;4.60;100.00
22047;BME280;11187;49.412;20.956;2022-09-24T06:45:18;95165.56;;;4.63;100.00
22047;BME280;11187;49.412;20.956;2022-09-24T06:48:13;95158.81;;;4.66;100.00
22047;BME280;11187;49.412;20.956;2022-09-24T06:50:47;95164.75;;;4.70;100.00
22047;BME280;11187;49.412;20.956;2022-09-24T06:53:41;95169.84;;;4.73;100.00
22047;BME280;11187;49.412;20.956;2022-09-24T06:56:35;95171.56;;;4.75;100.00
22047;BME280;11187;49.412;20.956;2022-09-24T06:59:29;95169.06;;;4.81;100.00
22047;BME280;11187;49.412;20.956;2022-09-24T07:02:03;95176.69;;;4.86;100.00
22047;BME280;11187;49.412;20.956;2022-09-24T07:04:49;95172.47;;;4.91;100.00
22047;BME280;11187;49.412;20.956;2022-09-24T07:07:23;95167.41;;;4.96;100.00
22047;BME280;11187;49.412;20.956;2022-09-24T07:10:11;95163.19;;;4.98;100.00
22047;BME280;11187;49.412;20.956;2022-09-24T07:12:45;95172.50;;;5.03;100.00
22047;BME280;11187;49.412;20.956;2022-09-24T07:15:39;95168.31;;;5.07;100.00
22047;BME280;11187;49.412;20.956;2022-09-24T07:18:33;95172.53;;;5.13;100.00
22047;BME280;11187;49.412;20.956;2022-09-24T07:21:07;95171.69;;;5.15;100.00
22047;BME280;11187;49.412;20.956;2022-09-24T07:23:53;95170.03;;;5.19;100.00
22047;BME280;11187;49.412;20.956;2022-09-24T07:26:28;95178.53;;;5.27;100.00
22047;BME280;11187;49.412;20.956;2022-09-24T07:29:22;95174.31;;;5.37;100.00
22047;BME280;11187;49.412;20.956;2022-09-24T07:31:55;95174.31;;;5.44;100.00
22047;BME280;11187;49.412;20.956;2022-09-24T07:34:41;95180.28;;;5.54;100.00
22047;BME280;11187;49.412;20.956;2022-09-24T07:37:15;95184.50;;;5.63;100.00
22047;BME280;11187;49.412;20.956;2022-09-24T07:40:09;95184.53;;;5.74;100.00
22047;BME280;11187;49.412;20.956;2022-09-24T07:42:46;95177.75;;;5.83;100.00
22047;BME280;11187;49.412;20.956;2022-09-24T07:45:41;95183.72;;;5.93;100.00
22047;BME280;11187;49.412;20.956;2022-09-24T07:48:34;95182.06;;;6.03;100.00
22047;BME280;11187;49.412;20.956;2022-09-24T07:51:28;95175.28;;;6.14;100.00
22047;BME280;11187;49.412;20.956;2022-09-24T07:54:02;95182.06;;;6.27;100.00
22047;BME280;11187;49.412;20.956;2022-09-24T07:56:55;95187.13;;;6.40;100.00
22047;BME280;11187;49.412;20.956;2022-09-24T07:59:29;95181.19;;;6.50;100.00
22047;BME280;11187;49.412;20.956;2022-09-24T08:02:16;95187.94;;;6.60;100.00
22047;BME280;11187;49.412;20.956;2022-09-24T08:04:51;95181.16;;;6.70;100.00
22047;BME280;11187;49.412;20.956;2022-09-24T08:07:52;95182.81;;;6.82;100.00
22047;BME280;11187;49.412;20.956;2022-09-24T08:10:45;95173.44;;;6.92;100.00
22047;BME280;11187;49.412;20.956;2022-09-24T08:13:39;95172.56;;;7.00;100.00
22047;BME280;11187;49.412;20.956;2022-09-24T08:16:33;95176.75;;;7.12;100.00
22047;BME280;11187;49.412;20.956;2022-09-24T08:19:08;95173.34;;;7.21;100.00
22047;BME280;11187;49.412;20.956;2022-09-24T08:22:02;95166.50;;;7.32;100.00
22047;BME280;11187;49.412;20.956;2022-09-24T08:24:37;95171.53;;;7.41;100.00
22047;BME280;11187;49.412;20.956;2022-09-24T08:27:30;95162.13;;;7.51;100.00
22047;BME280;11187;49.412;20.956;2022-09-24T08:30:05;95168.84;;;7.64;100.00
22047;BME280;11187;49.412;20.956;2022-09-24T08:33:00;95173.06;;;7.74;100.00
22047;BME280;11187;49.412;20.956;2022-09-24T08:35:53;95170.44;;;7.84;100.00
22047;BME280;11187;49.412;20.956;2022-09-24T08:38:47;95169.50;;;7.92;100.00
22047;BME280;11187;49.412;20.956;2022-09-24T08:42:00;95164.38;;;8.00;100.00
22047;BME280;11187;49.412;20.956;2022-09-24T08:44:55;95163.41;;;8.10;100.00
22047;BME280;11187;49.412;20.956;2022-09-24T08:48:15;95169.28;;;8.22;100.00
22047;BME280;11187;49.412;20.956;2022-09-24T08:50:55;95158.16;;;8.32;100.00
22047;BME280;11187;49.412;20.956;2022-09-24T08:56:28;95171.50;;;8.62;100.00
22047;BME280;11187;49.412;20.956;2022-09-24T08:59:32;95173.03;;;8.80;100.00
22047;BME280;11187;49.412;20.956;2022-09-24T09:08:01;95177.81;;;9.09;100.00
22047;BME280;11187;49.412;20.956;2022-09-24T09:11:14;95175.97;;;9.20;100.00
22047;BME280;11187;49.412;20.956;2022-09-24T09:13:54;95170.78;;;9.28;100.00
22047;BME280;11187;49.412;20.956;2022-09-24T09:16:54;95160.41;;;9.38;100.00
22047;BME280;11187;49.412;20.956;2022-09-24T09:19:55;95155.97;;;9.53;100.00
22047;BME280;11187;49.412;20.956;2022-09-24T09:22:30;95153.25;;;9.64;100.00
22047;BME280;11187;49.412;20.956;2022-09-24T09:25:21;95143.72;;;9.75;100.00
22047;BME280;11187;49.412;20.956;2022-09-24T09:28:03;95143.56;;;9.86;100.00
22047;BME280;11187;49.412;20.956;2022-09-24T09:43:06;95131.41;;;10.51;100.00
22047;BME280;11187;49.412;20.956;2022-09-24T09:48:57;95126.00;;;10.68;100.00
22047;BME280;11187;49.412;20.956;2022-09-24T09:51:38;95128.47;;;10.74;100.00
22047;BME280;11187;49.412;20.956;2022-09-24T09:54:20;95131.72;;;10.81;100.00
22047;BME280;11187;49.412;20.956;2022-09-24T09:57:01;95126.56;;;10.84;100.00
22047;BME280;11187;49.412;20.956;2022-09-24T09:59:45;95122.13;;;10.92;100.00
22047;BME280;11187;49.412;20.956;2022-09-24T10:02:30;95124.59;;;10.97;99.74
22047;BME280;11187;49.412;20.956;2022-09-24T10:05:05;95125.28;;;11.05;99.71
22047;BME280;11187;49.412;20.956;2022-09-24T10:08:21;95123.53;;;11.08;98.79
22047;BME280;11187;49.412;20.956;2022-09-24T10:11:15;95121.69;;;11.14;97.05
22047;BME280;11187;49.412;20.956;2022-09-24T10:14:12;95126.72;;;11.20;96.89
22047;BME280;11187;49.412;20.956;2022-09-24T10:16:53;95122.34;;;11.23;95.96
22047;BME280;11187;49.412;20.956;2022-09-24T10:19:45;95113.72;;;11.27;96.08
22047;BME280;11187;49.412;20.956;2022-09-24T10:22:21;95112.78;;;11.32;95.06
22047;BME280;11187;49.412;20.956;2022-09-24T10:25:24;95113.63;;;11.32;94.41
22047;BME280;11187;49.412;20.956;2022-09-24T10:28:06;95111.91;;;11.33;94.54
22047;BME280;11187;49.412;20.956;2022-09-24T10:31:21;95101.69;;;11.31;95.97
22047;BME280;11187;49.412;20.956;2022-09-24T10:34:20;95100.94;;;11.26;95.44
22047;BME280;11187;49.412;20.956;2022-09-24T10:37:03;95103.56;;;11.23;94.97
22047;BME280;11187;49.412;20.956;2022-09-24T10:40:00;95102.69;;;11.24;96.00
22047;BME280;11187;49.412;20.956;2022-09-24T10:42:34;95100.06;;;11.27;95.92
22047;BME280;11187;49.412;20.956;2022-09-24T10:48:37;95105.34;;;11.19;93.85
22047;BME280;11187;49.412;20.956;2022-09-24T10:54:42;95100.16;;;11.22;95.71
22047;BME280;11187;49.412;20.956;2022-09-24T10:57:33;95103.66;;;11.20;94.26
22047;BME280;11187;49.412;20.956;2022-09-24T11:06:37;95087.28;;;11.25;94.87
22047;BME280;11187;49.412;20.956;2022-09-24T11:27:47;95074.63;;;11.57;93.05
22047;BME280;11187;49.412;20.956;2022-09-24T11:52:32;95087.31;;;11.63;92.31
22047;BME280;11187;49.412;20.956;2022-09-24T11:55:37;95081.31;;;11.64;92.09
22047;BME280;11187;49.412;20.956;2022-09-24T11:58:43;95075.28;;;11.65;93.13
22047;BME280;11187;49.412;20.956;2022-09-24T12:01:33;95085.50;;;11.68;93.67
22047;BME280;11187;49.412;20.956;2022-09-24T12:07:11;95072.31;;;11.83;93.35
22047;BME280;11187;49.412;20.956;2022-09-24T12:10:32;95071.31;;;11.90;92.16
22047;BME280;11187;49.412;20.956;2022-09-24T12:16:26;95065.06;;;12.01;92.34
22047;BME280;11187;49.412;20.956;2022-09-24T12:19:25;95068.38;;;12.06;92.07
22047;BME280;11187;49.412;20.956;2022-09-24T12:22:02;95057.19;;;12.08;91.93
22047;BME280;11187;49.412;20.956;2022-09-24T12:24:58;95046.84;;;12.11;90.93
22047;BME280;11187;49.412;20.956;2022-09-24T12:27:34;95040.78;;;12.14;90.95
22047;BME280;11187;49.412;20.956;2022-09-24T12:33:27;95048.38;;;12.17;91.85
22047;BME280;11187;49.412;20.956;2022-09-24T12:36:44;95052.66;;;12.18;90.21
22047;BME280;11187;49.412;20.956;2022-09-24T12:39:47;95056.06;;;12.19;89.43
22047;BME280;11187;49.412;20.956;2022-09-24T12:42:29;95055.25;;;12.17;89.90
22047;BME280;11187;49.412;20.956;2022-09-24T12:45:20;95052.75;;;12.15;89.44
22047;BME280;11187;49.412;20.956;2022-09-24T12:47:57;95057.00;;;12.15;89.40
22047;BME280;11187;49.412;20.956;2022-09-24T12:50:55;95054.56;;;12.10;89.32
22047;BME280;11187;49.412;20.956;2022-09-24T12:53:34;95057.22;;;12.07;89.46
22047;BME280;11187;49.412;20.956;2022-09-24T12:56:29;95061.53;;;12.05;89.89
22047;BME280;11187;49.412;20.956;2022-09-24T12:59:26;95056.63;;;11.97;90.31
22047;BME280;11187;49.412;20.956;2022-09-24T13:02:42;95059.22;;;11.96;91.00
22047;BME280;11187;49.412;20.956;2022-09-24T13:11:23;95053.28;;;11.94;91.56
22047;BME280;11187;49.412;20.956;2022-09-24T13:14:04;95048.09;;;11.95;91.00
22047;BME280;11187;49.412;20.956;2022-09-24T13:17:04;95055.00;;;11.93;91.08
22047;BME280;11187;49.412;20.956;2022-09-24T13:20:04;95049.97;;;11.90;91.80
22047;BME280;11187;49.412;20.956;2022-09-24T13:22:38;95050.81;;;11.89;92.43
22047;BME280;11187;49.412;20.956;2022-09-24T13:25:25;95056.78;;;11.89;92.75
22047;BME280;11187;49.412;20.956;2022-09-24T13:28:20;95055.13;;;11.88;93.54
22047;BME280;11187;49.412;20.956;2022-09-24T13:34:29;95050.03;;;11.85;93.78
22047;BME280;11187;49.412;20.956;2022-09-24T13:37:33;95042.41;;;11.82;93.99
22047;BME280;11187;49.412;20.956;2022-09-24T13:40:21;95039.06;;;11.79;94.01
22047;BME280;11187;49.412;20.956;2022-09-24T13:43:13;95038.28;;;11.77;94.13
22047;BME280;11187;49.412;20.956;2022-09-24T13:45:48;95030.69;;;11.72;93.86
22047;BME280;11187;49.412;20.956;2022-09-24T13:48:37;95032.44;;;11.70;94.39
22047;BME280;11187;49.412;20.956;2022-09-24T13:51:12;95039.31;;;11.68;94.98
22047;BME280;11187;49.412;20.956;2022-09-24T13:54:14;95030.81;;;11.66;95.17
22047;BME280;11187;49.412;20.956;2022-09-24T13:57:23;95023.97;;;11.66;96.05
22047;BME280;11187;49.412;20.956;2022-09-24T14:03:19;95005.28;;;11.63;96.63
22047;BME280;11187;49.412;20.956;2022-09-24T14:05:53;95003.56;;;11.62;97.09
22047;BME280;11187;49.412;20.956;2022-09-24T14:08:47;95005.31;;;11.60;97.02
22047;BME280;11187;49.412;20.956;2022-09-24T14:11:21;95001.91;;;11.59;96.12
22047;BME280;11187;49.412;20.956;2022-09-24T14:14:18;95001.94;;;11.58;95.38
22047;BME280;11187;49.412;20.956;2022-09-24T14:17:14;95001.94;;;11.58;97.30
22047;BME280;11187;49.412;20.956;2022-09-24T14:19:47;95003.72;;;11.56;96.89
22047;BME280;11187;49.412;20.956;2022-09-24T14:22:42;95009.75;;;11.53;98.88
22047;BME280;11187;49.412;20.956;2022-09-24T14:25:29;95008.09;;;11.50;99.23
22047;BME280;11187;49.412;20.956;2022-09-24T14:28:19;95003.06;;;11.47;99.11
22047;BME280;11187;49.412;20.956;2022-09-24T14:30:54;95000.56;;;11.44;99.99
22047;BME280;11187;49.412;20.956;2022-09-24T14:33:49;95007.41;;;11.44;100.00
22047;BME280;11187;49.412;20.956;2022-09-24T14:36:43;95005.75;;;11.41;100.00
22047;BME280;11187;49.412;20.956;2022-09-24T14:39:16;95005.78;;;11.40;100.00
22047;BME280;11187;49.412;20.956;2022-09-24T14:42:16;94997.31;;;11.38;100.00
22047;BME280;11187;49.412;20.956;2022-09-24T14:44:54;94986.19;;;11.37;100.00
22047;BME280;11187;49.412;20.956;2022-09-24T14:48:00;94989.66;;;11.36;100.00
22047;BME280;11187;49.412;20.956;2022-09-24T14:50:39;94992.25;;;11.35;100.00
22047;BME280;11187;49.412;20.956;2022-09-24T14:53:36;94993.13;;;11.34;100.00
22047;BME280;11187;49.412;20.956;2022-09-24T14:56:20;94991.44;;;11.33;100.00
22047;BME280;11187;49.412;20.956;2022-09-24T14:59:37;94994.09;;;11.29;100.00
22047;BME280;11187;49.412;20.956;2022-09-24T15:05:02;94992.47;;;11.25;100.00
22047;BME280;11187;49.412;20.956;2022-09-24T15:07:36;95007.88;;;11.24;100.00
22047;BME280;11187;49.412;20.956;2022-09-24T15:10:24;95002.81;;;11.21;100.00
22047;BME280;11187;49.412;20.956;2022-09-24T15:12:57;95012.22;;;11.20;100.00
22047;BME280;11187;49.412;20.956;2022-09-24T15:15:44;95007.19;;;11.17;100.00
22047;BME280;11187;49.412;20.956;2022-09-24T15:18:17;95005.50;;;11.15;100.00
22047;BME280;11187;49.412;20.956;2022-09-24T15:21:04;95016.66;;;11.12;100.00
22047;BME280;11187;49.412;20.956;2022-09-24T15:23:40;95019.28;;;11.11;100.00
22047;BME280;11187;49.412;20.956;2022-09-24T15:26:35;95021.03;;;11.08;100.00
22047;BME280;11187;49.412;20.956;2022-09-24T15:29:17;95020.16;;;11.08;100.00
22047;BME280;11187;49.412;20.956;2022-09-24T15:32:17;95020.25;;;11.05;100.00
22047;BME280;11187;49.412;20.956;2022-09-24T15:35:15;95013.47;;;11.02;100.00
22047;BME280;11187;49.412;20.956;2022-09-24T15:37:48;95010.09;;;11.02;100.00
22047;BME280;11187;49.412;20.956;2022-09-24T15:40:35;95016.06;;;11.01;100.00
22047;BME280;11187;49.412;20.956;2022-09-24T15:43:20;95011.00;;;10.99;100.00
22047;BME280;11187;49.412;20.956;2022-09-24T15:46:08;95010.19;;;10.97;100.00
22047;BME280;11187;49.412;20.956;2022-09-24T15:48:43;95011.94;;;10.95;100.00
22047;BME280;11187;49.412;20.956;2022-09-24T15:51:30;95012.03;;;10.91;100.00
22047;BME280;11187;49.412;20.956;2022-09-24T15:54:04;95018.91;;;10.87;100.00
22047;BME280;11187;49.412;20.956;2022-09-24T15:56:52;95005.38;;;10.82;100.00
22047;BME280;11187;49.412;20.956;2022-09-24T15:59:26;95012.25;;;10.80;100.00
22047;BME280;11187;49.412;20.956;2022-09-24T16:02:22;95020.81;;;10.79;100.00
22047;BME280;11187;49.412;20.956;2022-09-24T16:04:58;95009.78;;;10.75;100.00
22047;BME280;11187;49.412;20.956;2022-09-24T16:07:46;95006.50;;;10.69;100.00
22047;BME280;11187;49.412;20.956;2022-09-24T16:10:19;95007.50;;;10.63;100.00
22047;BME280;11187;49.412;20.956;2022-09-24T16:13:06;95010.09;;;10.60;100.00
22047;BME280;11187;49.412;20.956;2022-09-24T16:15:40;95006.78;;;10.55;100.00
22047;BME280;11187;49.412;20.956;2022-09-24T16:18:28;95006.88;;;10.50;100.00
22047;BME280;11187;49.412;20.956;2022-09-24T16:21:04;95004.44;;;10.44;100.00
22047;BME280;11187;49.412;20.956;2022-09-24T16:23:58;95007.97;;;10.38;100.00
22047;BME280;11187;49.412;20.956;2022-09-24T16:26:32;95009.81;;;10.32;100.00
22047;BME280;11187;49.412;20.956;2022-09-24T16:29:19;95009.88;;;10.25;100.00
22047;BME280;11187;49.412;20.956;2022-09-24T16:31:52;95013.41;;;10.20;100.00
22047;BME280;11187;49.412;20.956;2022-09-24T16:34:48;95009.25;;;10.13;100.00
22047;BME280;11187;49.412;20.956;2022-09-24T16:37:42;95011.94;;;10.07;100.00
22047;BME280;11187;49.412;20.956;2022-09-24T16:40:36;95010.38;;;9.99;100.00
22047;BME280;11187;49.412;20.956;2022-09-24T16:43:30;95016.44;;;9.92;100.00